sensor_id;sensor_type;location;lat;lon;timestamp;P1;durP1;ratioP1;P2;durP2;ratioP2
42000;SDS011;27689;48.390;10.856;2023-11-21T00:01:03;8.30;;;1.50;;
42000;SDS011;27689;48.390;10.856;2023-11-21T00:03:48;6.60;;;1.50;;
42000;SDS011;27689;48.390;10.856;2023-11-21T00:06:32;7.17;;;1.23;;
42000;SDS011;27689;48.390;10.856;2023-11-21T00:09:16;6.37;;;1.47;;
42000;SDS011;27689;48.390;10.856;2023-11-21T00:12:01;6.28;;;1.35;;
42000;SDS011;27689;48.390;10.856;2023-11-21T00:14:45;6.38;;;1.15;;
42000;SDS011;27689;48.390;10.856;2023-11-21T00:17:29;8.85;;;2.22;;
42000;SDS011;27689;48.390;10.856;2023-11-21T00:20:13;3.42;;;1.35;;
42000;SDS011;27689;48.390;10.856;2023-11-21T00:22:57;8.10;;;1.38;;
42000;SDS011;27689;48.390;10.856;2023-11-21T00:25:43;5.32;;;1.17;;
42000;SDS011;27689;48.390;10.856;2023-11-21T00:28:27;5.13;;;1.10;;
42000;SDS011;27689;48.390;10.856;2023-11-21T00:31:11;5.70;;;1.42;;
42000;SDS011;27689;48.390;10.856;2023-11-21T00:33:55;5.57;;;1.23;;
42000;SDS011;27689;48.390;10.856;2023-11-21T00:36:39;11.25;;;1.48;;
42000;SDS011;27689;48.390;10.856;2023-11-21T00:39:24;5.55;;;1.33;;
42000;SDS011;27689;48.390;10.856;2023-11-21T00:42:09;6.60;;;1.17;;
42000;SDS011;27689;48.390;10.856;2023-11-21T00:44:54;7.07;;;1.33;;
42000;SDS011;27689;48.390;10.856;2023-11-21T00:47:38;2.40;;;0.90;;
42000;SDS011;27689;48.390;10.856;2023-11-21T00:50:22;5.93;;;1.20;;
42000;SDS011;27689;48.390;10.856;2023-11-21T00:53:06;5.03;;;1.07;;
42000;SDS011;27689;48.390;10.856;2023-11-21T00:55:51;3.22;;;0.93;;
42000;SDS011;27689;48.390;10.856;2023-11-21T00:58:40;6.22;;;1.10;;
42000;SDS011;27689;48.390;10.856;2023-11-21T01:01:30;6.28;;;1.38;;
42000;SDS011;27689;48.390;10.856;2023-11-21T01:04:14;7.65;;;1.15;;
42000;SDS011;27689;48.390;10.856;2023-11-21T01:06:58;4.90;;;1.23;;
42000;SDS011;27689;48.390;10.856;2023-11-21T01:09:42;6.88;;;1.80;;
42000;SDS011;27689;48.390;10.856;2023-11-21T01:12:27;6.82;;;1.23;;
42000;SDS011;27689;48.390;10.856;2023-11-21T01:15:11;5.30;;;0.83;;
42000;SDS011;27689;48.390;10.856;2023-11-21T01:17:55;11.23;;;1.38;;
42000;SDS011;27689;48.390;10.856;2023-11-21T01:20:39;7.60;;;1.17;;
42000;SDS011;27689;48.390;10.856;2023-11-21T01:23:23;4.10;;;1.00;;
42000;SDS011;27689;48.390;10.856;2023-11-21T01:26:07;6.70;;;1.63;;
42000;SDS011;27689;48.390;10.856;2023-11-21T01:28:52;5.68;;;1.27;;
42000;SDS011;27689;48.390;10.856;2023-11-21T01:31:36;6.93;;;1.40;;
42000;SDS011;27689;48.390;10.856;2023-11-21T01:34:20;5.28;;;1.20;;
42000;SDS011;27689;48.390;10.856;2023-11-21T01:37:05;4.43;;;1.20;;
42000;SDS011;27689;48.390;10.856;2023-11-21T01:39:49;6.00;;;1.70;;
42000;SDS011;27689;48.390;10.856;2023-11-21T01:42:33;5.30;;;1.80;;
42000;SDS011;27689;48.390;10.856;2023-11-21T01:45:18;7.75;;;1.60;;
42000;SDS011;27689;48.390;10.856;2023-11-21T01:48:02;7.85;;;1.30;;
42000;SDS011;27689;48.390;10.856;2023-11-21T01:50:47;3.67;;;1.08;;
42000;SDS011;27689;48.390;10.856;2023-11-21T01:56:16;3.80;;;1.38;;
42000;SDS011;27689;48.390;10.856;2023-11-21T01:59:00;5.32;;;1.25;;
42000;SDS011;27689;48.390;10.856;2023-11-21T02:01:44;4.93;;;1.60;;
42000;SDS011;27689;48.390;10.856;2023-11-21T02:04:30;2.65;;;0.90;;
42000;SDS011;27689;48.390;10.856;2023-11-21T02:07:15;3.42;;;1.27;;
42000;SDS011;27689;48.390;10.856;2023-11-21T02:09:59;8.82;;;1.70;;
42000;SDS011;27689;48.390;10.856;2023-11-21T02:12:43;5.32;;;1.30;;
42000;SDS011;27689;48.390;10.856;2023-11-21T02:15:27;3.75;;;1.10;;
42000;SDS011;27689;48.390;10.856;2023-11-21T02:18:12;2.83;;;0.90;;
42000;SDS011;27689;48.390;10.856;2023-11-21T02:20:56;4.27;;;1.10;;
42000;SDS011;27689;48.390;10.856;2023-11-21T02:23:40;6.30;;;1.53;;
42000;SDS011;27689;48.390;10.856;2023-11-21T02:26:28;4.70;;;1.40;;
42000;SDS011;27689;48.390;10.856;2023-11-21T02:29:12;6.60;;;1.85;;
42000;SDS011;27689;48.390;10.856;2023-11-21T02:31:57;4.05;;;1.17;;
42000;SDS011;27689;48.390;10.856;2023-11-21T02:34:41;8.63;;;1.92;;
42000;SDS011;27689;48.390;10.856;2023-11-21T02:37:27;5.35;;;1.60;;
42000;SDS011;27689;48.390;10.856;2023-11-21T02:40:11;5.38;;;1.23;;
42000;SDS011;27689;48.390;10.856;2023-11-21T02:43:00;5.47;;;1.52;;
42000;SDS011;27689;48.390;10.856;2023-11-21T02:45:45;4.10;;;1.38;;
42000;SDS011;27689;48.390;10.856;2023-11-21T02:48:29;3.20;;;1.20;;
42000;SDS011;27689;48.390;10.856;2023-11-21T02:51:14;8.70;;;1.60;;
42000;SDS011;27689;48.390;10.856;2023-11-21T02:54:00;5.68;;;1.40;;
42000;SDS011;27689;48.390;10.856;2023-11-21T02:56:46;5.90;;;1.40;;
42000;SDS011;27689;48.390;10.856;2023-11-21T02:59:30;3.60;;;1.17;;
42000;SDS011;27689;48.390;10.856;2023-11-21T03:02:14;5.63;;;1.50;;
42000;SDS011;27689;48.390;10.856;2023-11-21T03:04:59;5.40;;;1.30;;
42000;SDS011;27689;48.390;10.856;2023-11-21T03:07:43;3.80;;;1.30;;
42000;SDS011;27689;48.390;10.856;2023-11-21T03:10:28;8.38;;;1.60;;
42000;SDS011;27689;48.390;10.856;2023-11-21T03:13:11;4.78;;;1.40;;
42000;SDS011;27689;48.390;10.856;2023-11-21T03:15:55;7.47;;;1.80;;
42000;SDS011;27689;48.390;10.856;2023-11-21T03:18:39;5.00;;;1.42;;
42000;SDS011;27689;48.390;10.856;2023-11-21T03:21:24;2.60;;;1.05;;
42000;SDS011;27689;48.390;10.856;2023-11-21T03:24:08;6.57;;;1.30;;
42000;SDS011;27689;48.390;10.856;2023-11-21T03:26:52;4.97;;;1.23;;
42000;SDS011;27689;48.390;10.856;2023-11-21T03:29:36;8.20;;;1.47;;
42000;SDS011;27689;48.390;10.856;2023-11-21T03:32:20;7.20;;;1.43;;
42000;SDS011;27689;48.390;10.856;2023-11-21T03:35:04;4.13;;;1.35;;
42000;SDS011;27689;48.390;10.856;2023-11-21T03:37:49;6.45;;;1.40;;
42000;SDS011;27689;48.390;10.856;2023-11-21T03:40:33;5.87;;;1.30;;
42000;SDS011;27689;48.390;10.856;2023-11-21T03:43:17;5.05;;;1.10;;
42000;SDS011;27689;48.390;10.856;2023-11-21T03:46:01;7.90;;;1.20;;
42000;SDS011;27689;48.390;10.856;2023-11-21T03:48:46;7.82;;;1.60;;
42000;SDS011;27689;48.390;10.856;2023-11-21T03:51:30;4.83;;;1.50;;
42000;SDS011;27689;48.390;10.856;2023-11-21T03:54:14;3.57;;;1.00;;
42000;SDS011;27689;48.390;10.856;2023-11-21T03:56:58;5.55;;;1.40;;
42000;SDS011;27689;48.390;10.856;2023-11-21T03:59:42;6.63;;;1.37;;
42000;SDS011;27689;48.390;10.856;2023-11-21T04:02:26;4.13;;;1.05;;
42000;SDS011;27689;48.390;10.856;2023-11-21T04:05:11;2.42;;;0.93;;
42000;SDS011;27689;48.390;10.856;2023-11-21T04:07:56;4.03;;;1.10;;
42000;SDS011;27689;48.390;10.856;2023-11-21T04:10:40;4.33;;;1.10;;
42000;SDS011;27689;48.390;10.856;2023-11-21T04:13:23;5.15;;;1.10;;
42000;SDS011;27689;48.390;10.856;2023-11-21T04:16:08;2.63;;;0.82;;
42000;SDS011;27689;48.390;10.856;2023-11-21T04:18:52;8.00;;;1.40;;
42000;SDS011;27689;48.390;10.856;2023-11-21T04:21:36;1.45;;;0.70;;
42000;SDS011;27689;48.390;10.856;2023-11-21T04:24:21;3.42;;;1.10;;
42000;SDS011;27689;48.390;10.856;2023-11-21T04:27:05;3.85;;;0.95;;
42000;SDS011;27689;48.390;10.856;2023-11-21T04:29:49;3.77;;;0.77;;
42000;SDS011;27689;48.390;10.856;2023-11-21T04:32:33;4.45;;;1.20;;
42000;SDS011;27689;48.390;10.856;2023-11-21T04:35:17;4.53;;;1.00;;
42000;SDS011;27689;48.390;10.856;2023-11-21T04:38:01;4.65;;;1.23;;
42000;SDS011;27689;48.390;10.856;2023-11-21T04:40:46;4.40;;;1.10;;
42000;SDS011;27689;48.390;10.856;2023-11-21T04:43:30;4.85;;;1.08;;
42000;SDS011;27689;48.390;10.856;2023-11-21T04:46:14;3.23;;;1.00;;
42000;SDS011;27689;48.390;10.856;2023-11-21T04:48:58;2.53;;;0.80;;
42000;SDS011;27689;48.390;10.856;2023-11-21T04:51:42;6.90;;;0.88;;
42000;SDS011;27689;48.390;10.856;2023-11-21T04:54:26;4.77;;;1.23;;
42000;SDS011;27689;48.390;10.856;2023-11-21T04:57:10;3.43;;;0.80;;
42000;SDS011;27689;48.390;10.856;2023-11-21T04:59:54;3.93;;;0.87;;
42000;SDS011;27689;48.390;10.856;2023-11-21T05:02:39;4.10;;;0.90;;
42000;SDS011;27689;48.390;10.856;2023-11-21T05:05:25;4.57;;;1.00;;
42000;SDS011;27689;48.390;10.856;2023-11-21T05:08:09;5.35;;;1.52;;
42000;SDS011;27689;48.390;10.856;2023-11-21T05:10:53;4.37;;;1.07;;
42000;SDS011;27689;48.390;10.856;2023-11-21T05:13:37;3.13;;;1.00;;
42000;SDS011;27689;48.390;10.856;2023-11-21T05:16:25;2.78;;;1.00;;
42000;SDS011;27689;48.390;10.856;2023-11-21T05:19:11;2.95;;;0.90;;
42000;SDS011;27689;48.390;10.856;2023-11-21T05:21:56;3.47;;;1.02;;
42000;SDS011;27689;48.390;10.856;2023-11-21T05:24:40;3.20;;;1.05;;
42000;SDS011;27689;48.390;10.856;2023-11-21T05:27:24;2.58;;;0.82;;
42000;SDS011;27689;48.390;10.856;2023-11-21T05:30:08;2.90;;;1.00;;
42000;SDS011;27689;48.390;10.856;2023-11-21T05:32:55;3.00;;;0.88;;
42000;SDS011;27689;48.390;10.856;2023-11-21T05:35:39;4.15;;;0.82;;
42000;SDS011;27689;48.390;10.856;2023-11-21T05:38:23;3.40;;;0.90;;
42000;SDS011;27689;48.390;10.856;2023-11-21T05:41:08;2.90;;;0.90;;
42000;SDS011;27689;48.390;10.856;2023-11-21T05:43:54;3.90;;;1.10;;
42000;SDS011;27689;48.390;10.856;2023-11-21T05:46:38;2.20;;;1.00;;
42000;SDS011;27689;48.390;10.856;2023-11-21T05:49:22;1.17;;;0.60;;
42000;SDS011;27689;48.390;10.856;2023-11-21T05:52:06;3.67;;;1.00;;
42000;SDS011;27689;48.390;10.856;2023-11-21T05:54:50;5.80;;;0.87;;
42000;SDS011;27689;48.390;10.856;2023-11-21T05:57:34;2.93;;;0.90;;
42000;SDS011;27689;48.390;10.856;2023-11-21T06:00:21;6.63;;;1.20;;
42000;SDS011;27689;48.390;10.856;2023-11-21T06:03:05;3.45;;;0.98;;
42000;SDS011;27689;48.390;10.856;2023-11-21T06:05:49;4.33;;;1.23;;
42000;SDS011;27689;48.390;10.856;2023-11-21T06:08:33;3.15;;;1.30;;
42000;SDS011;27689;48.390;10.856;2023-11-21T06:11:17;2.05;;;1.30;;
42000;SDS011;27689;48.390;10.856;2023-11-21T06:14:01;3.65;;;1.60;;
42000;SDS011;27689;48.390;10.856;2023-11-21T06:16:45;3.03;;;1.50;;
42000;SDS011;27689;48.390;10.856;2023-11-21T06:19:29;5.18;;;1.25;;
42000;SDS011;27689;48.390;10.856;2023-11-21T06:22:13;1.92;;;0.90;;
42000;SDS011;27689;48.390;10.856;2023-11-21T06:24:58;2.78;;;1.15;;
42000;SDS011;27689;48.390;10.856;2023-11-21T06:27:43;2.43;;;0.87;;
42000;SDS011;27689;48.390;10.856;2023-11-21T06:30:28;3.05;;;1.02;;
42000;SDS011;27689;48.390;10.856;2023-11-21T06:33:12;5.50;;;1.77;;
42000;SDS011;27689;48.390;10.856;2023-11-21T06:35:56;3.75;;;1.23;;
42000;SDS011;27689;48.390;10.856;2023-11-21T06:38:40;3.40;;;1.60;;
42000;SDS011;27689;48.390;10.856;2023-11-21T06:41:24;3.63;;;1.33;;
42000;SDS011;27689;48.390;10.856;2023-11-21T06:44:08;3.33;;;1.50;;
42000;SDS011;27689;48.390;10.856;2023-11-21T06:46:52;2.22;;;1.10;;
42000;SDS011;27689;48.390;10.856;2023-11-21T06:49:36;3.45;;;1.20;;
42000;SDS011;27689;48.390;10.856;2023-11-21T06:52:21;1.98;;;1.00;;
42000;SDS011;27689;48.390;10.856;2023-11-21T06:55:06;2.33;;;1.08;;
42000;SDS011;27689;48.390;10.856;2023-11-21T06:57:52;2.67;;;1.33;;
42000;SDS011;27689;48.390;10.856;2023-11-21T07:00:36;2.58;;;1.05;;
42000;SDS011;27689;48.390;10.856;2023-11-21T07:03:20;3.72;;;1.20;;
42000;SDS011;27689;48.390;10.856;2023-11-21T07:06:04;2.37;;;1.10;;
42000;SDS011;27689;48.390;10.856;2023-11-21T07:11:33;2.47;;;0.88;;
42000;SDS011;27689;48.390;10.856;2023-11-21T07:14:18;1.80;;;0.90;;
42000;SDS011;27689;48.390;10.856;2023-11-21T07:17:03;1.83;;;1.10;;
42000;SDS011;27689;48.390;10.856;2023-11-21T07:19:47;3.47;;;1.15;;
42000;SDS011;27689;48.390;10.856;2023-11-21T07:22:31;2.38;;;1.15;;
42000;SDS011;27689;48.390;10.856;2023-11-21T07:25:15;4.03;;;1.57;;
42000;SDS011;27689;48.390;10.856;2023-11-21T07:27:59;3.53;;;1.40;;
42000;SDS011;27689;48.390;10.856;2023-11-21T07:30:44;3.95;;;1.33;;
42000;SDS011;27689;48.390;10.856;2023-11-21T07:33:28;4.00;;;1.40;;
42000;SDS011;27689;48.390;10.856;2023-11-21T07:36:12;1.40;;;0.80;;
42000;SDS011;27689;48.390;10.856;2023-11-21T07:38:57;3.17;;;1.10;;
42000;SDS011;27689;48.390;10.856;2023-11-21T07:41:41;2.25;;;0.95;;
42000;SDS011;27689;48.390;10.856;2023-11-21T07:44:31;2.75;;;1.20;;
42000;SDS011;27689;48.390;10.856;2023-11-21T07:47:15;2.93;;;1.10;;
42000;SDS011;27689;48.390;10.856;2023-11-21T07:50:00;4.43;;;1.10;;
42000;SDS011;27689;48.390;10.856;2023-11-21T07:52:46;3.78;;;1.20;;
42000;SDS011;27689;48.390;10.856;2023-11-21T07:55:30;2.33;;;0.80;;
42000;SDS011;27689;48.390;10.856;2023-11-21T07:58:16;3.15;;;1.30;;
42000;SDS011;27689;48.390;10.856;2023-11-21T08:01:00;1.37;;;0.93;;
42000;SDS011;27689;48.390;10.856;2023-11-21T08:06:31;4.80;;;1.15;;
42000;SDS011;27689;48.390;10.856;2023-11-21T08:09:16;3.22;;;0.80;;
42000;SDS011;27689;48.390;10.856;2023-11-21T08:12:01;4.05;;;1.00;;
42000;SDS011;27689;48.390;10.856;2023-11-21T08:14:46;3.10;;;1.02;;
42000;SDS011;27689;48.390;10.856;2023-11-21T08:17:30;1.77;;;0.75;;
42000;SDS011;27689;48.390;10.856;2023-11-21T08:20:15;2.25;;;0.77;;
42000;SDS011;27689;48.390;10.856;2023-11-21T08:23:02;2.33;;;0.75;;
42000;SDS011;27689;48.390;10.856;2023-11-21T08:25:46;5.45;;;0.80;;
42000;SDS011;27689;48.390;10.856;2023-11-21T08:28:29;2.72;;;0.90;;
42000;SDS011;27689;48.390;10.856;2023-11-21T08:31:14;3.00;;;0.85;;
42000;SDS011;27689;48.390;10.856;2023-11-21T08:33:58;2.15;;;0.82;;
42000;SDS011;27689;48.390;10.856;2023-11-21T08:36:42;4.53;;;0.88;;
42000;SDS011;27689;48.390;10.856;2023-11-21T08:39:27;3.15;;;0.88;;
42000;SDS011;27689;48.390;10.856;2023-11-21T08:42:11;1.90;;;0.80;;
42000;SDS011;27689;48.390;10.856;2023-11-21T08:44:58;1.83;;;0.80;;
42000;SDS011;27689;48.390;10.856;2023-11-21T08:47:42;2.20;;;0.90;;
42000;SDS011;27689;48.390;10.856;2023-11-21T08:50:27;2.95;;;0.85;;
42000;SDS011;27689;48.390;10.856;2023-11-21T08:53:11;2.83;;;0.90;;
42000;SDS011;27689;48.390;10.856;2023-11-21T08:55:55;2.33;;;0.70;;
42000;SDS011;27689;48.390;10.856;2023-11-21T08:58:40;4.85;;;0.82;;
42000;SDS011;27689;48.390;10.856;2023-11-21T09:01:25;2.53;;;0.85;;
42000;SDS011;27689;48.390;10.856;2023-11-21T09:04:09;2.15;;;1.02;;
42000;SDS011;27689;48.390;10.856;2023-11-21T09:06:53;2.40;;;1.20;;
42000;SDS011;27689;48.390;10.856;2023-11-21T09:09:37;3.95;;;0.90;;
42000;SDS011;27689;48.390;10.856;2023-11-21T09:12:21;4.65;;;1.23;;
42000;SDS011;27689;48.390;10.856;2023-11-21T09:15:06;1.53;;;0.90;;
42000;SDS011;27689;48.390;10.856;2023-11-21T09:17:51;4.05;;;1.05;;
42000;SDS011;27689;48.390;10.856;2023-11-21T09:20:35;4.00;;;1.45;;
42000;SDS011;27689;48.390;10.856;2023-11-21T09:23:18;3.93;;;1.13;;
42000;SDS011;27689;48.390;10.856;2023-11-21T09:26:02;3.20;;;1.23;;
42000;SDS011;27689;48.390;10.856;2023-11-21T09:28:47;3.03;;;1.25;;
42000;SDS011;27689;48.390;10.856;2023-11-21T09:31:31;2.97;;;1.27;;
42000;SDS011;27689;48.390;10.856;2023-11-21T09:34:17;3.03;;;1.48;;
42000;SDS011;27689;48.390;10.856;2023-11-21T09:37:01;3.38;;;1.40;;
42000;SDS011;27689;48.390;10.856;2023-11-21T09:39:49;4.15;;;1.52;;
42000;SDS011;27689;48.390;10.856;2023-11-21T09:42:38;2.80;;;1.27;;
42000;SDS011;27689;48.390;10.856;2023-11-21T09:45:26;5.13;;;1.25;;
42000;SDS011;27689;48.390;10.856;2023-11-21T09:48:15;5.82;;;2.20;;
42000;SDS011;27689;48.390;10.856;2023-11-21T09:51:00;2.63;;;1.48;;
42000;SDS011;27689;48.390;10.856;2023-11-21T09:53:47;6.47;;;2.90;;
42000;SDS011;27689;48.390;10.856;2023-11-21T09:56:39;4.40;;;1.70;;
42000;SDS011;27689;48.390;10.856;2023-11-21T09:59:23;4.53;;;1.95;;
42000;SDS011;27689;48.390;10.856;2023-11-21T10:02:08;5.53;;;2.50;;
42000;SDS011;27689;48.390;10.856;2023-11-21T10:04:56;6.25;;;2.72;;
42000;SDS011;27689;48.390;10.856;2023-11-21T10:07:40;4.03;;;2.15;;
42000;SDS011;27689;48.390;10.856;2023-11-21T10:10:28;4.40;;;2.72;;
42000;SDS011;27689;48.390;10.856;2023-11-21T10:13:16;4.30;;;1.48;;
42000;SDS011;27689;48.390;10.856;2023-11-21T10:16:01;3.85;;;1.50;;
42000;SDS011;27689;48.390;10.856;2023-11-21T10:18:49;2.95;;;1.80;;
42000;SDS011;27689;48.390;10.856;2023-11-21T10:21:37;3.65;;;1.35;;
42000;SDS011;27689;48.390;10.856;2023-11-21T10:24:22;2.85;;;1.30;;
42000;SDS011;27689;48.390;10.856;2023-11-21T10:27:06;2.93;;;1.27;;
42000;SDS011;27689;48.390;10.856;2023-11-21T10:29:51;2.17;;;0.98;;
42000;SDS011;27689;48.390;10.856;2023-11-21T10:32:35;2.40;;;1.00;;
42000;SDS011;27689;48.390;10.856;2023-11-21T10:35:19;4.57;;;1.00;;
42000;SDS011;27689;48.390;10.856;2023-11-21T10:38:03;3.53;;;1.67;;
42000;SDS011;27689;48.390;10.856;2023-11-21T10:40:47;3.58;;;0.95;;
42000;SDS011;27689;48.390;10.856;2023-11-21T10:43:33;2.72;;;0.80;;
42000;SDS011;27689;48.390;10.856;2023-11-21T10:46:16;3.60;;;1.10;;
42000;SDS011;27689;48.390;10.856;2023-11-21T10:49:01;4.30;;;2.40;;
42000;SDS011;27689;48.390;10.856;2023-11-21T10:51:45;6.75;;;1.95;;
42000;SDS011;27689;48.390;10.856;2023-11-21T10:54:32;2.53;;;1.40;;
42000;SDS011;27689;48.390;10.856;2023-11-21T10:57:17;2.15;;;0.95;;
42000;SDS011;27689;48.390;10.856;2023-11-21T11:00:02;3.90;;;1.00;;
42000;SDS011;27689;48.390;10.856;2023-11-21T11:02:53;2.75;;;1.13;;
42000;SDS011;27689;48.390;10.856;2023-11-21T11:05:40;3.40;;;1.35;;
42000;SDS011;27689;48.390;10.856;2023-11-21T11:08:29;4.65;;;2.42;;
42000;SDS011;27689;48.390;10.856;2023-11-21T11:11:13;2.70;;;1.75;;
42000;SDS011;27689;48.390;10.856;2023-11-21T11:13:57;3.83;;;2.15;;
42000;SDS011;27689;48.390;10.856;2023-11-21T11:16:43;4.50;;;2.08;;
42000;SDS011;27689;48.390;10.856;2023-11-21T11:19:28;4.88;;;1.90;;
42000;SDS011;27689;48.390;10.856;2023-11-21T11:22:19;1.77;;;1.00;;
42000;SDS011;27689;48.390;10.856;2023-11-21T11:38:35;2.00;;;0.90;;
42000;SDS011;27689;48.390;10.856;2023-11-21T11:41:26;1.58;;;0.60;;
42000;SDS011;27689;48.390;10.856;2023-11-21T11:44:51;1.77;;;0.82;;
42000;SDS011;27689;48.390;10.856;2023-11-21T11:47:35;1.25;;;0.60;;
42000;SDS011;27689;48.390;10.856;2023-11-21T11:50:21;3.70;;;0.88;;
42000;SDS011;27689;48.390;10.856;2023-11-21T11:53:13;1.95;;;0.90;;
42000;SDS011;27689;48.390;10.856;2023-11-21T11:59:10;2.75;;;0.73;;
42000;SDS011;27689;48.390;10.856;2023-11-21T12:01:54;2.33;;;1.10;;
42000;SDS011;27689;48.390;10.856;2023-11-21T12:04:41;2.40;;;0.80;;
42000;SDS011;27689;48.390;10.856;2023-11-21T12:07:24;1.20;;;0.90;;
42000;SDS011;27689;48.390;10.856;2023-11-21T12:10:28;2.38;;;0.93;;
42000;SDS011;27689;48.390;10.856;2023-11-21T12:13:13;2.45;;;1.00;;
42000;SDS011;27689;48.390;10.856;2023-11-21T12:15:57;2.87;;;0.80;;
42000;SDS011;27689;48.390;10.856;2023-11-21T12:18:42;5.32;;;2.70;;
42000;SDS011;27689;48.390;10.856;2023-11-21T12:21:26;4.93;;;1.98;;
42000;SDS011;27689;48.390;10.856;2023-11-21T12:24:11;2.28;;;1.30;;
42000;SDS011;27689;48.390;10.856;2023-11-21T12:26:57;2.47;;;1.23;;
42000;SDS011;27689;48.390;10.856;2023-11-21T12:29:41;2.63;;;1.00;;
42000;SDS011;27689;48.390;10.856;2023-11-21T12:32:25;2.10;;;1.00;;
42000;SDS011;27689;48.390;10.856;2023-11-21T12:35:09;3.70;;;0.90;;
42000;SDS011;27689;48.390;10.856;2023-11-21T12:37:57;1.83;;;0.70;;
42000;SDS011;27689;48.390;10.856;2023-11-21T12:40:41;1.23;;;0.70;;
42000;SDS011;27689;48.390;10.856;2023-11-21T12:43:25;1.20;;;0.80;;
42000;SDS011;27689;48.390;10.856;2023-11-21T12:46:12;2.33;;;0.90;;
42000;SDS011;27689;48.390;10.856;2023-11-21T12:48:57;2.22;;;1.17;;
42000;SDS011;27689;48.390;10.856;2023-11-21T12:51:42;4.18;;;2.60;;
42000;SDS011;27689;48.390;10.856;2023-11-21T12:54:26;3.50;;;2.45;;
42000;SDS011;27689;48.390;10.856;2023-11-21T12:57:11;2.85;;;1.60;;
42000;SDS011;27689;48.390;10.856;2023-11-21T12:59:58;1.92;;;1.13;;
42000;SDS011;27689;48.390;10.856;2023-11-21T13:02:44;2.42;;;1.17;;
42000;SDS011;27689;48.390;10.856;2023-11-21T13:05:38;4.43;;;2.03;;
42000;SDS011;27689;48.390;10.856;2023-11-21T13:08:24;2.85;;;1.40;;
42000;SDS011;27689;48.390;10.856;2023-11-21T13:11:09;4.45;;;1.17;;
42000;SDS011;27689;48.390;10.856;2023-11-21T13:13:54;2.40;;;1.25;;
42000;SDS011;27689;48.390;10.856;2023-11-21T13:19:29;4.95;;;1.90;;
42000;SDS011;27689;48.390;10.856;2023-11-21T13:22:13;3.53;;;1.40;;
42000;SDS011;27689;48.390;10.856;2023-11-21T13:24:57;3.13;;;1.57;;
42000;SDS011;27689;48.390;10.856;2023-11-21T13:30:27;1.88;;;1.10;;
42000;SDS011;27689;48.390;10.856;2023-11-21T13:33:17;2.25;;;1.30;;
42000;SDS011;27689;48.390;10.856;2023-11-21T13:36:05;3.28;;;1.10;;
42000;SDS011;27689;48.390;10.856;2023-11-21T13:38:53;3.38;;;1.00;;
42000;SDS011;27689;48.390;10.856;2023-11-21T13:41:37;0.75;;;0.60;;
42000;SDS011;27689;48.390;10.856;2023-11-21T13:44:21;2.33;;;0.63;;
42000;SDS011;27689;48.390;10.856;2023-11-21T13:47:18;0.88;;;0.68;;
42000;SDS011;27689;48.390;10.856;2023-11-21T13:50:03;2.42;;;0.80;;
42000;SDS011;27689;48.390;10.856;2023-11-21T13:52:48;1.67;;;0.77;;
42000;SDS011;27689;48.390;10.856;2023-11-21T13:55:36;1.85;;;0.90;;
42000;SDS011;27689;48.390;10.856;2023-11-21T13:58:21;2.90;;;1.10;;
42000;SDS011;27689;48.390;10.856;2023-11-21T14:01:26;1.83;;;1.00;;
42000;SDS011;27689;48.390;10.856;2023-11-21T14:04:13;1.65;;;0.80;;
42000;SDS011;27689;48.390;10.856;2023-11-21T14:07:00;1.38;;;0.93;;
42000;SDS011;27689;48.390;10.856;2023-11-21T14:09:54;2.53;;;1.08;;
42000;SDS011;27689;48.390;10.856;2023-11-21T14:12:39;3.28;;;1.80;;
42000;SDS011;27689;48.390;10.856;2023-11-21T14:15:26;3.78;;;1.70;;
42000;SDS011;27689;48.390;10.856;2023-11-21T14:18:12;2.03;;;1.27;;
42000;SDS011;27689;48.390;10.856;2023-11-21T14:21:00;2.03;;;1.20;;
42000;SDS011;27689;48.390;10.856;2023-11-21T14:23:44;2.67;;;1.20;;
42000;SDS011;27689;48.390;10.856;2023-11-21T14:26:29;2.53;;;1.27;;
42000;SDS011;27689;48.390;10.856;2023-11-21T14:32:08;3.00;;;1.30;;
42000;SDS011;27689;48.390;10.856;2023-11-21T14:34:52;2.40;;;1.33;;
42000;SDS011;27689;48.390;10.856;2023-11-21T14:37:37;3.55;;;1.65;;
42000;SDS011;27689;48.390;10.856;2023-11-21T14:40:21;2.67;;;1.60;;
42000;SDS011;27689;48.390;10.856;2023-11-21T14:43:08;2.10;;;1.20;;
42000;SDS011;27689;48.390;10.856;2023-11-21T14:45:52;2.13;;;1.10;;
42000;SDS011;27689;48.390;10.856;2023-11-21T14:48:36;1.65;;;1.23;;
42000;SDS011;27689;48.390;10.856;2023-11-21T14:51:27;2.70;;;1.73;;
42000;SDS011;27689;48.390;10.856;2023-11-21T14:54:15;4.68;;;1.80;;
42000;SDS011;27689;48.390;10.856;2023-11-21T14:57:09;2.95;;;1.90;;
42000;SDS011;27689;48.390;10.856;2023-11-21T14:59:55;5.20;;;2.78;;
42000;SDS011;27689;48.390;10.856;2023-11-21T15:02:41;3.28;;;2.53;;
42000;SDS011;27689;48.390;10.856;2023-11-21T15:05:33;3.15;;;2.10;;
42000;SDS011;27689;48.390;10.856;2023-11-21T15:08:19;3.45;;;2.30;;
42000;SDS011;27689;48.390;10.856;2023-11-21T15:11:11;4.43;;;2.95;;
42000;SDS011;27689;48.390;10.856;2023-11-21T15:13:59;4.65;;;3.22;;
42000;SDS011;27689;48.390;10.856;2023-11-21T15:16:44;5.53;;;4.03;;
42000;SDS011;27689;48.390;10.856;2023-11-21T15:19:33;5.85;;;3.63;;
42000;SDS011;27689;48.390;10.856;2023-11-21T15:22:19;4.28;;;2.67;;
42000;SDS011;27689;48.390;10.856;2023-11-21T15:25:03;6.32;;;4.60;;
42000;SDS011;27689;48.390;10.856;2023-11-21T15:27:53;6.93;;;4.45;;
42000;SDS011;27689;48.390;10.856;2023-11-21T15:30:37;7.73;;;5.10;;
42000;SDS011;27689;48.390;10.856;2023-11-21T15:33:21;4.28;;;2.00;;
42000;SDS011;27689;48.390;10.856;2023-11-21T15:36:05;4.47;;;2.30;;
42000;SDS011;27689;48.390;10.856;2023-11-21T15:38:54;3.67;;;2.33;;
42000;SDS011;27689;48.390;10.856;2023-11-21T15:41:38;6.00;;;2.80;;
42000;SDS011;27689;48.390;10.856;2023-11-21T15:44:22;4.13;;;1.93;;
42000;SDS011;27689;48.390;10.856;2023-11-21T15:47:09;3.47;;;1.90;;
42000;SDS011;27689;48.390;10.856;2023-11-21T15:49:53;1.98;;;1.20;;
42000;SDS011;27689;48.390;10.856;2023-11-21T15:52:37;1.75;;;1.27;;
42000;SDS011;27689;48.390;10.856;2023-11-21T15:55:21;3.05;;;1.80;;
42000;SDS011;27689;48.390;10.856;2023-11-21T15:58:05;2.13;;;1.55;;
42000;SDS011;27689;48.390;10.856;2023-11-21T16:03:33;3.22;;;2.20;;
42000;SDS011;27689;48.390;10.856;2023-11-21T16:06:17;4.50;;;2.50;;
42000;SDS011;27689;48.390;10.856;2023-11-21T16:09:02;5.20;;;3.92;;
42000;SDS011;27689;48.390;10.856;2023-11-21T16:11:45;6.18;;;4.50;;
42000;SDS011;27689;48.390;10.856;2023-11-21T16:14:29;6.97;;;4.87;;
42000;SDS011;27689;48.390;10.856;2023-11-21T16:17:28;6.10;;;4.13;;
42000;SDS011;27689;48.390;10.856;2023-11-21T16:20:12;4.78;;;3.97;;
42000;SDS011;27689;48.390;10.856;2023-11-21T16:22:56;6.05;;;3.72;;
42000;SDS011;27689;48.390;10.856;2023-11-21T16:25:40;5.00;;;3.20;;
42000;SDS011;27689;48.390;10.856;2023-11-21T16:28:24;3.72;;;2.92;;
42000;SDS011;27689;48.390;10.856;2023-11-21T16:31:08;5.43;;;3.37;;
42000;SDS011;27689;48.390;10.856;2023-11-21T16:33:53;3.47;;;2.67;;
42000;SDS011;27689;48.390;10.856;2023-11-21T16:36:37;4.55;;;3.00;;
42000;SDS011;27689;48.390;10.856;2023-11-21T16:39:21;3.87;;;3.20;;
42000;SDS011;27689;48.390;10.856;2023-11-21T16:42:06;3.70;;;3.40;;
42000;SDS011;27689;48.390;10.856;2023-11-21T16:44:50;6.28;;;4.25;;
42000;SDS011;27689;48.390;10.856;2023-11-21T16:47:36;5.80;;;3.83;;
42000;SDS011;27689;48.390;10.856;2023-11-21T16:50:21;5.40;;;4.55;;
42000;SDS011;27689;48.390;10.856;2023-11-21T16:53:05;6.40;;;4.63;;
42000;SDS011;27689;48.390;10.856;2023-11-21T16:55:51;8.93;;;4.95;;